sensor_id;sensor_type;location;lat;lon;timestamp;temperature;humidity
38414;DHT22;24195;48.654;9.294;2022-08-27T00:02:00;18.30;99.90
38414;DHT22;24195;48.654;9.294;2022-08-27T00:04:26;18.30;99.90
38414;DHT22;24195;48.654;9.294;2022-08-27T00:06:52;18.30;99.90
38414;DHT22;24195;48.654;9.294;2022-08-27T00:09:17;18.30;99.90
38414;DHT22;24195;48.654;9.294;2022-08-27T00:11:43;18.30;99.90
38414;DHT22;24195;48.654;9.294;2022-08-27T00:14:09;18.30;99.90
38414;DHT22;24195;48.654;9.294;2022-08-27T00:16:34;18.30;99.90
38414;DHT22;24195;48.654;9.294;2022-08-27T00:19:00;18.30;99.90
38414;DHT22;24195;48.654;9.294;2022-08-27T00:21:25;18.30;99.90
38414;DHT22;24195;48.654;9.294;2022-08-27T00:23:51;18.30;99.90
38414;DHT22;24195;48.654;9.294;2022-08-27T00:26:17;18.40;99.90
38414;DHT22;24195;48.654;9.294;2022-08-27T00:28:43;18.40;99.90
38414;DHT22;24195;48.654;9.294;2022-08-27T00:31:09;18.40;99.90
38414;DHT22;24195;48.654;9.294;2022-08-27T00:33:35;18.40;99.90
38414;DHT22;24195;48.654;9.294;2022-08-27T00:36:02;18.40;99.90
38414;DHT22;24195;48.654;9.294;2022-08-27T00:38:28;18.40;99.90
38414;DHT22;24195;48.654;9.294;2022-08-27T00:40:54;18.40;99.90
38414;DHT22;24195;48.654;9.294;2022-08-27T00:43:31;18.50;99.90
38414;DHT22;24195;48.654;9.294;2022-08-27T00:46:11;18.40;99.90
38414;DHT22;24195;48.654;9.294;2022-08-27T00:48:37;18.30;99.90
38414;DHT22;24195;48.654;9.294;2022-08-27T00:51:03;18.20;99.90
38414;DHT22;24195;48.654;9.294;2022-08-27T00:53:32;18.10;99.90
38414;DHT22;24195;48.654;9.294;2022-08-27T00:56:15;18.10;99.90
38414;DHT22;24195;48.654;9.294;2022-08-27T00:58:46;18.10;99.90
38414;DHT22;24195;48.654;9.294;2022-08-27T01:01:15;18.10;99.90
38414;DHT22;24195;48.654;9.294;2022-08-27T01:03:45;18.20;99.90
38414;DHT22;24195;48.654;9.294;2022-08-27T01:06:13;18.20;99.90
38414;DHT22;24195;48.654;9.294;2022-08-27T01:08:43;18.20;99.90
38414;DHT22;24195;48.654;9.294;2022-08-27T01:11:10;18.30;99.90
38414;DHT22;24195;48.654;9.294;2022-08-27T01:13:37;18.30;99.90
38414;DHT22;24195;48.654;9.294;2022-08-27T01:16:06;18.30;99.90
38414;DHT22;24195;48.654;9.294;2022-08-27T01:18:34;18.30;99.90
38414;DHT22;24195;48.654;9.294;2022-08-27T01:26:58;18.20;99.90
38414;DHT22;24195;48.654;9.294;2022-08-27T01:29:24;18.30;99.90
38414;DHT22;24195;48.654;9.294;2022-08-27T01:31:50;18.20;99.90
38414;DHT22;24195;48.654;9.294;2022-08-27T01:34:16;18.20;99.90
38414;DHT22;24195;48.654;9.294;2022-08-27T01:36:41;18.20;99.90
38414;DHT22;24195;48.654;9.294;2022-08-27T01:39:07;18.30;99.90
38414;DHT22;24195;48.654;9.294;2022-08-27T01:41:33;18.30;99.90
38414;DHT22;24195;48.654;9.294;2022-08-27T01:43:58;18.30;99.90
38414;DHT22;24195;48.654;9.294;2022-08-27T01:46:26;18.20;99.90
38414;DHT22;24195;48.654;9.294;2022-08-27T01:48:52;18.20;99.90
38414;DHT22;24195;48.654;9.294;2022-08-27T01:51:19;18.10;99.90
38414;DHT22;24195;48.654;9.294;2022-08-27T01:53:44;18.10;99.90
38414;DHT22;24195;48.654;9.294;2022-08-27T01:56:10;18.10;99.90
38414;DHT22;24195;48.654;9.294;2022-08-27T01:58:36;18.10;99.90
38414;DHT22;24195;48.654;9.294;2022-08-27T02:01:09;18.10;99.90
38414;DHT22;24195;48.654;9.294;2022-08-27T02:03:36;18.20;99.90
38414;DHT22;24195;48.654;9.294;2022-08-27T02:06:08;18.30;99.90
38414;DHT22;24195;48.654;9.294;2022-08-27T02:08:34;18.30;99.90
38414;DHT22;24195;48.654;9.294;2022-08-27T02:11:00;18.30;99.90
38414;DHT22;24195;48.654;9.294;2022-08-27T02:13:26;18.30;99.90
38414;DHT22;24195;48.654;9.294;2022-08-27T02:15:52;18.30;99.90
38414;DHT22;24195;48.654;9.294;2022-08-27T02:18:20;18.30;99.90
38414;DHT22;24195;48.654;9.294;2022-08-27T02:20:46;18.20;99.90
38414;DHT22;24195;48.654;9.294;2022-08-27T02:23:14;18.30;99.90
38414;DHT22;24195;48.654;9.294;2022-08-27T02:25:39;18.30;99.90
38414;DHT22;24195;48.654;9.294;2022-08-27T02:28:06;18.40;99.90
38414;DHT22;24195;48.654;9.294;2022-08-27T02:30:33;18.50;99.90
38414;DHT22;24195;48.654;9.294;2022-08-27T02:33:00;18.50;99.90
38414;DHT22;24195;48.654;9.294;2022-08-27T02:35:28;18.50;99.90
38414;DHT22;24195;48.654;9.294;2022-08-27T02:37:54;18.50;99.90
38414;DHT22;24195;48.654;9.294;2022-08-27T02:40:22;18.50;99.90
38414;DHT22;24195;48.654;9.294;2022-08-27T02:42:48;18.50;99.90
38414;DHT22;24195;48.654;9.294;2022-08-27T02:45:15;18.50;99.90
38414;DHT22;24195;48.654;9.294;2022-08-27T02:47:41;18.50;99.90
38414;DHT22;24195;48.654;9.294;2022-08-27T02:50:07;18.40;99.90
38414;DHT22;24195;48.654;9.294;2022-08-27T02:52:33;18.40;99.90
38414;DHT22;24195;48.654;9.294;2022-08-27T02:54:59;18.40;99.90
38414;DHT22;24195;48.654;9.294;2022-08-27T02:57:25;18.50;99.90
38414;DHT22;24195;48.654;9.294;2022-08-27T02:59:51;18.50;99.90
38414;DHT22;24195;48.654;9.294;2022-08-27T03:02:17;18.60;99.90
38414;DHT22;24195;48.654;9.294;2022-08-27T03:04:43;18.70;99.90
38414;DHT22;24195;48.654;9.294;2022-08-27T03:07:09;18.60;99.90
38414;DHT22;24195;48.654;9.294;2022-08-27T03:09:35;18.70;99.90
38414;DHT22;24195;48.654;9.294;2022-08-27T03:12:00;18.70;99.90
38414;DHT22;24195;48.654;9.294;2022-08-27T03:14:27;18.80;99.90
38414;DHT22;24195;48.654;9.294;2022-08-27T03:16:53;18.80;99.90
38414;DHT22;24195;48.654;9.294;2022-08-27T03:19:53;18.80;99.90
38414;DHT22;24195;48.654;9.294;2022-08-27T03:22:18;18.80;99.90
38414;DHT22;24195;48.654;9.294;2022-08-27T03:24:44;18.80;99.90
38414;DHT22;24195;48.654;9.294;2022-08-27T03:27:10;18.80;99.90
38414;DHT22;24195;48.654;9.294;2022-08-27T03:29:36;18.70;99.90
38414;DHT22;24195;48.654;9.294;2022-08-27T03:32:01;18.60;99.90
38414;DHT22;24195;48.654;9.294;2022-08-27T03:34:28;18.60;99.90
38414;DHT22;24195;48.654;9.294;2022-08-27T03:36:55;18.60;99.90
38414;DHT22;24195;48.654;9.294;2022-08-27T03:39:20;18.60;99.90
38414;DHT22;24195;48.654;9.294;2022-08-27T03:41:46;18.60;99.90
38414;DHT22;24195;48.654;9.294;2022-08-27T03:44:12;18.70;99.90
38414;DHT22;24195;48.654;9.294;2022-08-27T03:46:37;18.70;99.90
38414;DHT22;24195;48.654;9.294;2022-08-27T03:49:14;18.70;99.90
38414;DHT22;24195;48.654;9.294;2022-08-27T03:51:39;18.70;99.90
38414;DHT22;24195;48.654;9.294;2022-08-27T03:54:05;18.70;99.90
38414;DHT22;24195;48.654;9.294;2022-08-27T03:56:31;18.80;99.90
38414;DHT22;24195;48.654;9.294;2022-08-27T03:59:03;18.70;99.90
38414;DHT22;24195;48.654;9.294;2022-08-27T04:01:30;18.70;99.90
38414;DHT22;24195;48.654;9.294;2022-08-27T04:03:56;18.70;99.90
38414;DHT22;24195;48.654;9.294;2022-08-27T04:06:21;18.70;99.90
38414;DHT22;24195;48.654;9.294;2022-08-27T04:08:47;18.70;99.90
38414;DHT22;24195;48.654;9.294;2022-08-27T04:11:12;18.70;99.90
38414;DHT22;24195;48.654;9.294;2022-08-27T04:13:38;18.80;99.90
38414;DHT22;24195;48.654;9.294;2022-08-27T04:16:05;18.80;99.90
38414;DHT22;24195;48.654;9.294;2022-08-27T04:18:31;18.70;99.90
38414;DHT22;24195;48.654;9.294;2022-08-27T04:20:57;18.80;99.90
38414;DHT22;24195;48.654;9.294;2022-08-27T04:23:23;18.80;99.90
38414;DHT22;24195;48.654;9.294;2022-08-27T04:25:48;18.80;99.90
38414;DHT22;24195;48.654;9.294;2022-08-27T04:28:16;18.80;99.90
38414;DHT22;24195;48.654;9.294;2022-08-27T04:30:44;18.80;99.90
38414;DHT22;24195;48.654;9.294;2022-08-27T04:33:11;18.80;99.90
38414;DHT22;24195;48.654;9.294;2022-08-27T04:35:38;18.80;99.90
38414;DHT22;24195;48.654;9.294;2022-08-27T04:38:04;18.80;99.90
38414;DHT22;24195;48.654;9.294;2022-08-27T04:40:30;18.80;99.90
38414;DHT22;24195;48.654;9.294;2022-08-27T04:43:14;18.80;99.90
38414;DHT22;24195;48.654;9.294;2022-08-27T04:45:42;18.80;99.90
38414;DHT22;24195;48.654;9.294;2022-08-27T04:48:09;18.80;99.90
38414;DHT22;24195;48.654;9.294;2022-08-27T04:50:41;18.90;99.90
38414;DHT22;24195;48.654;9.294;2022-08-27T04:53:08;18.80;99.90
38414;DHT22;24195;48.654;9.294;2022-08-27T04:55:40;18.90;99.90
38414;DHT22;24195;48.654;9.294;2022-08-27T04:58:06;19.00;99.90
38414;DHT22;24195;48.654;9.294;2022-08-27T05:00:32;19.10;99.90
38414;DHT22;24195;48.654;9.294;2022-08-27T05:02:58;19.10;99.90
38414;DHT22;24195;48.654;9.294;2022-08-27T05:05:26;18.90;99.90
38414;DHT22;24195;48.654;9.294;2022-08-27T05:07:51;18.90;99.90
38414;DHT22;24195;48.654;9.294;2022-08-27T05:10:17;18.90;99.90
38414;DHT22;24195;48.654;9.294;2022-08-27T05:12:42;18.80;99.90
38414;DHT22;24195;48.654;9.294;2022-08-27T05:15:08;18.80;99.90
38414;DHT22;24195;48.654;9.294;2022-08-27T05:17:34;18.70;99.90
38414;DHT22;24195;48.654;9.294;2022-08-27T05:19:59;18.60;99.90
38414;DHT22;24195;48.654;9.294;2022-08-27T05:22:25;18.60;99.90
38414;DHT22;24195;48.654;9.294;2022-08-27T05:24:52;18.60;99.90
38414;DHT22;24195;48.654;9.294;2022-08-27T05:27:17;18.60;99.90
38414;DHT22;24195;48.654;9.294;2022-08-27T05:29:43;18.60;99.90
38414;DHT22;24195;48.654;9.294;2022-08-27T05:32:09;18.70;99.90
38414;DHT22;24195;48.654;9.294;2022-08-27T05:34:34;18.70;99.90
38414;DHT22;24195;48.654;9.294;2022-08-27T05:37:00;18.70;99.90
38414;DHT22;24195;48.654;9.294;2022-08-27T05:39:25;18.80;99.90
38414;DHT22;24195;48.654;9.294;2022-08-27T05:41:55;18.80;99.90
38414;DHT22;24195;48.654;9.294;2022-08-27T05:44:21;18.90;99.90
38414;DHT22;24195;48.654;9.294;2022-08-27T05:46:47;18.90;99.90
38414;DHT22;24195;48.654;9.294;2022-08-27T05:49:13;18.90;99.90
38414;DHT22;24195;48.654;9.294;2022-08-27T05:51:38;18.90;99.90
38414;DHT22;24195;48.654;9.294;2022-08-27T05:54:09;18.90;99.90
38414;DHT22;24195;48.654;9.294;2022-08-27T05:56:40;19.00;99.90
38414;DHT22;24195;48.654;9.294;2022-08-27T05:59:06;19.10;99.90
38414;DHT22;24195;48.654;9.294;2022-08-27T06:01:52;19.10;99.90
38414;DHT22;24195;48.654;9.294;2022-08-27T06:04:19;19.10;99.90
38414;DHT22;24195;48.654;9.294;2022-08-27T06:06:45;19.10;99.90
38414;DHT22;24195;48.654;9.294;2022-08-27T06:09:15;19.30;99.90
38414;DHT22;24195;48.654;9.294;2022-08-27T06:11:41;19.30;99.90
38414;DHT22;24195;48.654;9.294;2022-08-27T06:14:07;19.30;99.90
38414;DHT22;24195;48.654;9.294;2022-08-27T06:16:34;19.30;99.90
38414;DHT22;24195;48.654;9.294;2022-08-27T06:18:59;19.40;99.90
38414;DHT22;24195;48.654;9.294;2022-08-27T06:21:25;19.40;99.90
38414;DHT22;24195;48.654;9.294;2022-08-27T06:23:54;19.40;99.90
38414;DHT22;24195;48.654;9.294;2022-08-27T06:26:21;19.40;99.90
38414;DHT22;24195;48.654;9.294;2022-08-27T06:28:48;19.40;99.90
38414;DHT22;24195;48.654;9.294;2022-08-27T06:31:17;19.50;99.90
38414;DHT22;24195;48.654;9.294;2022-08-27T06:33:44;19.50;99.90
38414;DHT22;24195;48.654;9.294;2022-08-27T06:36:13;19.50;99.90
38414;DHT22;24195;48.654;9.294;2022-08-27T06:38:39;19.50;99.90
38414;DHT22;24195;48.654;9.294;2022-08-27T06:41:08;19.50;99.90
38414;DHT22;24195;48.654;9.294;2022-08-27T06:43:35;19.40;99.90
38414;DHT22;24195;48.654;9.294;2022-08-27T06:46:03;19.40;99.90
38414;DHT22;24195;48.654;9.294;2022-08-27T06:48:29;19.30;99.90
38414;DHT22;24195;48.654;9.294;2022-08-27T06:50:55;19.30;99.90
38414;DHT22;24195;48.654;9.294;2022-08-27T06:53:21;19.20;99.90
38414;DHT22;24195;48.654;9.294;2022-08-27T06:55:47;19.20;99.90
38414;DHT22;24195;48.654;9.294;2022-08-27T06:58:14;19.30;99.90
38414;DHT22;24195;48.654;9.294;2022-08-27T07:00:41;19.50;99.90
38414;DHT22;24195;48.654;9.294;2022-08-27T07:03:07;19.70;99.90
38414;DHT22;24195;48.654;9.294;2022-08-27T07:05:34;19.70;99.90
38414;DHT22;24195;48.654;9.294;2022-08-27T07:08:00;19.80;99.90
38414;DHT22;24195;48.654;9.294;2022-08-27T07:10:26;19.80;99.90
38414;DHT22;24195;48.654;9.294;2022-08-27T07:12:52;20.00;99.90
38414;DHT22;24195;48.654;9.294;2022-08-27T07:15:18;20.00;99.90
38414;DHT22;24195;48.654;9.294;2022-08-27T07:17:43;20.10;99.90
38414;DHT22;24195;48.654;9.294;2022-08-27T07:20:10;20.00;99.90
38414;DHT22;24195;48.654;9.294;2022-08-27T07:22:38;20.20;99.90
38414;DHT22;24195;48.654;9.294;2022-08-27T07:25:24;20.10;99.90
38414;DHT22;24195;48.654;9.294;2022-08-27T07:28:03;20.10;99.90
38414;DHT22;24195;48.654;9.294;2022-08-27T07:30:29;20.20;99.90
38414;DHT22;24195;48.654;9.294;2022-08-27T07:32:55;20.10;99.90
38414;DHT22;24195;48.654;9.294;2022-08-27T07:35:20;20.00;99.90
38414;DHT22;24195;48.654;9.294;2022-08-27T07:37:46;19.90;99.90
38414;DHT22;24195;48.654;9.294;2022-08-27T07:40:13;19.90;99.90
38414;DHT22;24195;48.654;9.294;2022-08-27T07:42:40;19.80;99.90
38414;DHT22;24195;48.654;9.294;2022-08-27T07:45:26;19.80;99.90
38414;DHT22;24195;48.654;9.294;2022-08-27T07:47:52;19.80;99.90
38414;DHT22;24195;48.654;9.294;2022-08-27T07:50:18;19.90;99.90
38414;DHT22;24195;48.654;9.294;2022-08-27T07:52:44;20.00;99.90
38414;DHT22;24195;48.654;9.294;2022-08-27T07:55:11;20.10;99.90
38414;DHT22;24195;48.654;9.294;2022-08-27T07:57:37;20.20;99.90
38414;DHT22;24195;48.654;9.294;2022-08-27T08:00:04;20.00;99.90
38414;DHT22;24195;48.654;9.294;2022-08-27T08:02:30;20.00;99.90
38414;DHT22;24195;48.654;9.294;2022-08-27T08:05:21;20.00;99.90
38414;DHT22;24195;48.654;9.294;2022-08-27T08:08:14;19.90;99.90
38414;DHT22;24195;48.654;9.294;2022-08-27T08:10:41;19.90;99.90
38414;DHT22;24195;48.654;9.294;2022-08-27T08:13:08;20.00;99.90
38414;DHT22;24195;48.654;9.294;2022-08-27T08:15:35;20.00;99.90
38414;DHT22;24195;48.654;9.294;2022-08-27T08:18:19;20.20;99.90
38414;DHT22;24195;48.654;9.294;2022-08-27T08:20:44;20.30;99.90
38414;DHT22;24195;48.654;9.294;2022-08-27T08:23:12;20.40;99.90
38414;DHT22;24195;48.654;9.294;2022-08-27T08:25:37;20.10;99.90
38414;DHT22;24195;48.654;9.294;2022-08-27T08:28:03;19.90;99.90
38414;DHT22;24195;48.654;9.294;2022-08-27T08:30:28;20.00;99.90
38414;DHT22;24195;48.654;9.294;2022-08-27T08:32:54;20.00;99.90
38414;DHT22;24195;48.654;9.294;2022-08-27T08:35:20;20.10;99.90
38414;DHT22;24195;48.654;9.294;2022-08-27T08:37:45;20.20;99.90
38414;DHT22;24195;48.654;9.294;2022-08-27T08:40:38;20.40;99.90
38414;DHT22;24195;48.654;9.294;2022-08-27T08:43:35;20.30;99.90
38414;DHT22;24195;48.654;9.294;2022-08-27T08:46:14;20.20;99.90
38414;DHT22;24195;48.654;9.294;2022-08-27T08:48:44;20.00;99.90
38414;DHT22;24195;48.654;9.294;2022-08-27T08:51:32;20.00;99.90
38414;DHT22;24195;48.654;9.294;2022-08-27T08:54:08;20.20;99.90
38414;DHT22;24195;48.654;9.294;2022-08-27T09:01:56;20.30;99.90
38414;DHT22;24195;48.654;9.294;2022-08-27T09:04:22;20.20;99.90
38414;DHT22;24195;48.654;9.294;2022-08-27T09:09:57;20.20;99.90
38414;DHT22;24195;48.654;9.294;2022-08-27T09:12:27;20.30;99.90
38414;DHT22;24195;48.654;9.294;2022-08-27T09:15:28;20.40;99.90
38414;DHT22;24195;48.654;9.294;2022-08-27T09:18:05;20.30;99.90
38414;DHT22;24195;48.654;9.294;2022-08-27T09:20:32;20.20;99.90
38414;DHT22;24195;48.654;9.294;2022-08-27T09:23:13;20.20;99.90
38414;DHT22;24195;48.654;9.294;2022-08-27T09:25:42;20.10;99.90
38414;DHT22;24195;48.654;9.294;2022-08-27T09:28:14;20.10;99.90
38414;DHT22;24195;48.654;9.294;2022-08-27T09:31:08;20.10;99.90
38414;DHT22;24195;48.654;9.294;2022-08-27T09:33:34;20.00;99.90
38414;DHT22;24195;48.654;9.294;2022-08-27T09:36:02;19.90;99.90
38414;DHT22;24195;48.654;9.294;2022-08-27T09:38:31;20.00;99.90
38414;DHT22;24195;48.654;9.294;2022-08-27T09:41:01;20.00;99.90
38414;DHT22;24195;48.654;9.294;2022-08-27T09:43:29;20.00;99.90
38414;DHT22;24195;48.654;9.294;2022-08-27T09:46:01;20.20;99.90
38414;DHT22;24195;48.654;9.294;2022-08-27T09:48:35;20.40;99.90
38414;DHT22;24195;48.654;9.294;2022-08-27T09:51:10;20.40;99.90
38414;DHT22;24195;48.654;9.294;2022-08-27T09:54:02;20.30;99.90
38414;DHT22;24195;48.654;9.294;2022-08-27T09:56:31;20.30;99.90
38414;DHT22;24195;48.654;9.294;2022-08-27T09:59:20;20.40;99.90
38414;DHT22;24195;48.654;9.294;2022-08-27T10:04:44;20.90;99.90
38414;DHT22;24195;48.654;9.294;2022-08-27T10:10:19;21.00;99.90
38414;DHT22;24195;48.654;9.294;2022-08-27T10:12:55;21.20;99.90
38414;DHT22;24195;48.654;9.294;2022-08-27T10:15:23;21.50;99.90
38414;DHT22;24195;48.654;9.294;2022-08-27T10:18:04;21.60;99.90
38414;DHT22;24195;48.654;9.294;2022-08-27T10:20:43;21.40;99.90
38414;DHT22;24195;48.654;9.294;2022-08-27T10:26:24;21.00;99.90
38414;DHT22;24195;48.654;9.294;2022-08-27T10:32:27;20.90;99.90
38414;DHT22;24195;48.654;9.294;2022-08-27T10:35:12;20.90;99.90
38414;DHT22;24195;48.654;9.294;2022-08-27T10:42:36;21.50;99.90
38414;DHT22;24195;48.654;9.294;2022-08-27T10:48:47;21.10;99.90
38414;DHT22;24195;48.654;9.294;2022-08-27T10:51:21;20.90;99.90
38414;DHT22;24195;48.654;9.294;2022-08-27T10:54:03;21.00;99.90
38414;DHT22;24195;48.654;9.294;2022-08-27T10:56:42;21.30;99.90
38414;DHT22;24195;48.654;9.294;2022-08-27T10:59:35;21.40;99.90
38414;DHT22;24195;48.654;9.294;2022-08-27T11:02:26;21.40;99.90
38414;DHT22;24195;48.654;9.294;2022-08-27T11:04:59;21.40;99.90
38414;DHT22;24195;48.654;9.294;2022-08-27T11:07:51;21.30;99.90
38414;DHT22;24195;48.654;9.294;2022-08-27T11:10:25;21.20;99.90
38414;DHT22;24195;48.654;9.294;2022-08-27T11:12:55;21.10;99.90
38414;DHT22;24195;48.654;9.294;2022-08-27T11:15:28;21.00;99.90
38414;DHT22;24195;48.654;9.294;2022-08-27T11:18:10;21.00;99.90
38414;DHT22;24195;48.654;9.294;2022-08-27T11:21:12;20.70;99.90
38414;DHT22;24195;48.654;9.294;2022-08-27T11:23:53;20.60;99.90
38414;DHT22;24195;48.654;9.294;2022-08-27T11:26:21;20.70;99.90
38414;DHT22;24195;48.654;9.294;2022-08-27T11:28:51;20.60;99.90
38414;DHT22;24195;48.654;9.294;2022-08-27T11:31:32;20.70;99.90
38414;DHT22;24195;48.654;9.294;2022-08-27T11:34:03;20.60;99.90
38414;DHT22;24195;48.654;9.294;2022-08-27T11:39:23;20.50;99.90
38414;DHT22;24195;48.654;9.294;2022-08-27T11:45:06;20.70;99.90
38414;DHT22;24195;48.654;9.294;2022-08-27T11:47:33;20.60;99.90
38414;DHT22;24195;48.654;9.294;2022-08-27T11:50:00;20.60;99.90
38414;DHT22;24195;48.654;9.294;2022-08-27T11:52:31;20.70;99.90
38414;DHT22;24195;48.654;9.294;2022-08-27T11:57:48;20.80;99.90
38414;DHT22;24195;48.654;9.294;2022-08-27T12:00:29;20.90;99.90
38414;DHT22;24195;48.654;9.294;2022-08-27T12:03:09;20.80;99.90
38414;DHT22;24195;48.654;9.294;2022-08-27T12:16:46;20.70;99.90
38414;DHT22;24195;48.654;9.294;2022-08-27T12:24:55;21.30;99.90
38414;DHT22;24195;48.654;9.294;2022-08-27T12:29:57;21.20;99.90
38414;DHT22;24195;48.654;9.294;2022-08-27T12:32:30;21.00;99.90
38414;DHT22;24195;48.654;9.294;2022-08-27T12:37:47;20.60;99.90
38414;DHT22;24195;48.654;9.294;2022-08-27T12:40:21;20.60;99.90
38414;DHT22;24195;48.654;9.294;2022-08-27T12:42:48;20.70;99.90
38414;DHT22;24195;48.654;9.294;2022-08-27T12:45:24;20.60;99.90
38414;DHT22;24195;48.654;9.294;2022-08-27T12:47:51;20.30;99.90
38414;DHT22;24195;48.654;9.294;2022-08-27T12:50:26;20.20;99.90
38414;DHT22;24195;48.654;9.294;2022-08-27T12:56:48;20.10;99.90
38414;DHT22;24195;48.654;9.294;2022-08-27T13:05:11;19.60;99.90
38414;DHT22;24195;48.654;9.294;2022-08-27T13:07:43;19.70;99.90
38414;DHT22;24195;48.654;9.294;2022-08-27T13:10:20;19.70;99.90
38414;DHT22;24195;48.654;9.294;2022-08-27T13:13:01;19.60;99.90
38414;DHT22;24195;48.654;9.294;2022-08-27T13:15:26;19.70;99.90
38414;DHT22;24195;48.654;9.294;2022-08-27T13:17:52;19.90;99.90
38414;DHT22;24195;48.654;9.294;2022-08-27T13:20:23;20.10;99.90
38414;DHT22;24195;48.654;9.294;2022-08-27T13:22:51;20.30;99.90
38414;DHT22;24195;48.654;9.294;2022-08-27T13:25:23;20.40;99.90
38414;DHT22;24195;48.654;9.294;2022-08-27T13:27:59;20.70;99.90
38414;DHT22;24195;48.654;9.294;2022-08-27T13:30:32;20.90;99.90
38414;DHT22;24195;48.654;9.294;2022-08-27T13:32:59;21.20;99.90
38414;DHT22;24195;48.654;9.294;2022-08-27T13:35:25;21.50;99.90
38414;DHT22;24195;48.654;9.294;2022-08-27T13:37:52;21.80;99.90
38414;DHT22;24195;48.654;9.294;2022-08-27T13:42:53;21.90;99.90
38414;DHT22;24195;48.654;9.294;2022-08-27T13:45:19;22.20;99.90
38414;DHT22;24195;48.654;9.294;2022-08-27T13:47:46;22.40;99.90
38414;DHT22;24195;48.654;9.294;2022-08-27T13:50:24;22.50;99.90
38414;DHT22;24195;48.654;9.294;2022-08-27T13:52:51;22.30;99.90
38414;DHT22;24195;48.654;9.294;2022-08-27T13:55:38;22.40;99.90
38414;DHT22;24195;48.654;9.294;2022-08-27T13:58:16;22.40;99.90
38414;DHT22;24195;48.654;9.294;2022-08-27T14:00:46;22.40;99.90
38414;DHT22;24195;48.654;9.294;2022-08-27T14:03:32;22.40;99.90
38414;DHT22;24195;48.654;9.294;2022-08-27T14:06:00;22.40;99.90
38414;DHT22;24195;48.654;9.294;2022-08-27T14:08:32;22.30;99.90
38414;DHT22;24195;48.654;9.294;2022-08-27T14:11:05;22.40;99.90
38414;DHT22;24195;48.654;9.294;2022-08-27T14:13:41;22.30;99.90
38414;DHT22;24195;48.654;9.294;2022-08-27T14:16:28;22.50;99.90
38414;DHT22;24195;48.654;9.294;2022-08-27T14:21:49;22.70;99.90
38414;DHT22;24195;48.654;9.294;2022-08-27T14:24:14;22.70;99.90
38414;DHT22;24195;48.654;9.294;2022-08-27T14:26:40;22.70;99.90
38414;DHT22;24195;48.654;9.294;2022-08-27T14:29:05;22.60;99.90
38414;DHT22;24195;48.654;9.294;2022-08-27T14:31:40;22.60;99.90
38414;DHT22;24195;48.654;9.294;2022-08-27T14:34:08;22.80;99.90
38414;DHT22;24195;48.654;9.294;2022-08-27T14:36:48;23.10;99.90
38414;DHT22;24195;48.654;9.294;2022-08-27T14:39:39;23.30;99.90
38414;DHT22;24195;48.654;9.294;2022-08-27T14:42:26;23.50;99.90
38414;DHT22;24195;48.654;9.294;2022-08-27T14:44:52;23.30;99.90
38414;DHT22;24195;48.654;9.294;2022-08-27T14:47:18;23.20;99.90
38414;DHT22;24195;48.654;9.294;2022-08-27T14:49:45;23.40;99.90
38414;DHT22;24195;48.654;9.294;2022-08-27T14:52:12;23.10;99.90
38414;DHT22;24195;48.654;9.294;2022-08-27T14:54:39;22.70;99.90
38414;DHT22;24195;48.654;9.294;2022-08-27T14:57:06;22.20;99.90
38414;DHT22;24195;48.654;9.294;2022-08-27T14:59:32;22.50;99.90
38414;DHT22;24195;48.654;9.294;2022-08-27T15:02:04;22.60;99.90
38414;DHT22;24195;48.654;9.294;2022-08-27T15:04:33;23.10;99.90
38414;DHT22;24195;48.654;9.294;2022-08-27T15:06:59;23.70;99.90
38414;DHT22;24195;48.654;9.294;2022-08-27T15:09:27;24.40;99.90
38414;DHT22;24195;48.654;9.294;2022-08-27T15:12:09;25.00;99.90
38414;DHT22;24195;48.654;9.294;2022-08-27T15:14:36;25.00;99.90
38414;DHT22;24195;48.654;9.294;2022-08-27T15:17:03;24.20;99.90
38414;DHT22;24195;48.654;9.294;2022-08-27T15:19:32;23.50;99.90
38414;DHT22;24195;48.654;9.294;2022-08-27T15:22:20;23.50;99.90
38414;DHT22;24195;48.654;9.294;2022-08-27T15:24:55;23.00;99.90
38414;DHT22;24195;48.654;9.294;2022-08-27T15:27:23;22.70;99.90
38414;DHT22;24195;48.654;9.294;2022-08-27T15:29:49;22.50;99.90
38414;DHT22;24195;48.654;9.294;2022-08-27T15:34:49;22.60;99.90
38414;DHT22;24195;48.654;9.294;2022-08-27T15:37:14;22.60;99.90
38414;DHT22;24195;48.654;9.294;2022-08-27T15:39:40;22.60;99.90
38414;DHT22;24195;48.654;9.294;2022-08-27T15:42:07;22.60;99.90
38414;DHT22;24195;48.654;9.294;2022-08-27T15:44:33;22.60;99.90
38414;DHT22;24195;48.654;9.294;2022-08-27T15:46:59;22.80;99.90
38414;DHT22;24195;48.654;9.294;2022-08-27T15:49:25;22.90;99.90
38414;DHT22;24195;48.654;9.294;2022-08-27T15:51:50;23.00;99.90
38414;DHT22;24195;48.654;9.294;2022-08-27T15:54:16;22.80;99.90
38414;DHT22;24195;48.654;9.294;2022-08-27T15:56:42;22.40;99.90
38414;DHT22;24195;48.654;9.294;2022-08-27T15:59:07;22.10;99.90
38414;DHT22;24195;48.654;9.294;2022-08-27T16:01:36;21.90;99.90
38414;DHT22;24195;48.654;9.294;2022-08-27T16:04:10;21.90;99.90
38414;DHT22;24195;48.654;9.294;2022-08-27T16:06:36;21.80;99.90
38414;DHT22;24195;48.654;9.294;2022-08-27T16:09:02;21.90;99.90
38414;DHT22;24195;48.654;9.294;2022-08-27T16:11:28;22.30;99.90
38414;DHT22;24195;48.654;9.294;2022-08-27T16:13:54;22.70;99.90
38414;DHT22;24195;48.654;9.294;2022-08-27T16:16:24;22.60;99.90
38414;DHT22;24195;48.654;9.294;2022-08-27T16:18:53;22.60;99.90
38414;DHT22;24195;48.654;9.294;2022-08-27T16:21:19;22.10;99.90
38414;DHT22;24195;48.654;9.294;2022-08-27T16:23:50;22.00;99.90
38414;DHT22;24195;48.654;9.294;2022-08-27T16:26:16;22.10;99.90
38414;DHT22;24195;48.654;9.294;2022-08-27T16:28:42;22.20;99.90
38414;DHT22;24195;48.654;9.294;2022-08-27T16:31:08;22.30;99.90
38414;DHT22;24195;48.654;9.294;2022-08-27T16:33:35;22.10;99.90
38414;DHT22;24195;48.654;9.294;2022-08-27T16:36:04;21.90;99.90
38414;DHT22;24195;48.654;9.294;2022-08-27T16:38:29;21.80;99.90
38414;DHT22;24195;48.654;9.294;2022-08-27T16:40:55;21.70;99.90
38414;DHT22;24195;48.654;9.294;2022-08-27T16:43:27;21.60;99.90
38414;DHT22;24195;48.654;9.294;2022-08-27T16:46:26;21.30;99.90
38414;DHT22;24195;48.654;9.294;2022-08-27T16:48:52;21.30;99.90
38414;DHT22;24195;48.654;9.294;2022-08-27T16:51:36;21.40;99.90
38414;DHT22;24195;48.654;9.294;2022-08-27T16:54:04;21.80;99.90
38414;DHT22;24195;48.654;9.294;2022-08-27T16:56:33;22.40;99.90
38414;DHT22;24195;48.654;9.294;2022-08-27T16:59:24;22.80;99.90
38414;DHT22;24195;48.654;9.294;2022-08-27T17:01:58;22.70;99.90
38414;DHT22;24195;48.654;9.294;2022-08-27T17:04:24;22.60;99.90
38414;DHT22;24195;48.654;9.294;2022-08-27T17:06:50;22.50;99.90
38414;DHT22;24195;48.654;9.294;2022-08-27T17:09:17;22.40;99.90
38414;DHT22;24195;48.654;9.294;2022-08-27T17:11:47;22.20;99.90